Time;durP1;ratioP1;P1;durP2;ratioP2;P2;SDS_P1;SDS_P2;PMS_P1;PMS_P2;Temp;Humidity;BMP_temperature;BMP_pressure;BME280_temperature;BME280_humidity;BME280_pressure;Samples;Min_cycle;Max_cycle;Signal;HPM_P1;HPM_P2
2022/05/15 00:01:21;;;;;;;6.35;4.32;;;;;;;14.74;56.65;99186.34;2618393;54;20031;-68
2022/05/15 00:03:54;;;;;;;6.53;4.53;;;;;;;14.73;56.71;99186.53;2618251;54;20022;-67
2022/05/15 00:06:25;;;;;;;7.38;4.13;;;;;;;14.65;57.32;99182.25;2617359;47;20026;-68
2022/05/15 00:08:55;;;;;;;4.53;4.03;;;;;;;14.70;57.05;99179.81;2617753;54;20098;-66
2022/05/15 00:11:24;;;;;;;5.93;4.00;;;;;;;14.60;57.48;99177.56;2617911;54;20042;-66
2022/05/15 00:13:55;;;;;;;4.90;4.03;;;;;;;14.64;57.57;99177.97;2617828;54;20034;-67
2022/05/15 00:16:26;;;;;;;7.53;4.10;;;;;;;14.67;57.61;99176.75;2618217;39;20410;-68
2022/05/15 00:18:58;;;;;;;6.10;4.43;;;;;;;14.61;57.30;99173.91;2617826;54;20027;-67
2022/05/15 00:21:29;;;;;;;5.82;4.47;;;;;;;14.58;57.51;99165.53;2617421;54;20038;-67
2022/05/15 00:23:59;;;;;;;7.15;4.53;;;;;;;14.52;57.46;99175.13;2620135;54;20034;-68
2022/05/15 00:26:29;;;;;;;5.35;4.38;;;;;;;14.57;57.51;99162.06;2618507;47;20030;-69
2022/05/15 00:28:58;;;;;;;7.05;4.40;;;;;;;14.24;57.82;99170.06;2617658;54;20042;-67
2022/05/15 00:31:28;;;;;;;8.52;4.22;;;;;;;14.16;58.39;99170.28;2618268;54;20037;-67
2022/05/15 00:34:01;;;;;;;5.72;4.03;;;;;;;14.12;58.30;99166.38;2617067;54;20149;-67
2022/05/15 00:36:30;;;;;;;6.22;4.35;;;;;;;14.17;58.61;99171.13;2617363;47;20138;-67
2022/05/15 00:39:00;;;;;;;5.13;4.38;;;;;;;14.07;58.79;99160.88;2617675;54;20031;-68
2022/05/15 00:41:30;;;;;;;5.38;4.05;;;;;;;14.06;58.67;99161.91;2617225;47;20037;-68
2022/05/15 00:44:01;;;;;;;7.68;4.70;;;;;;;13.96;59.04;99161.50;2617332;47;20018;-68
2022/05/15 00:46:33;;;;;;;7.38;4.57;;;;;;;13.95;59.06;99159.88;2617753;54;20038;-68
2022/05/15 00:49:08;;;;;;;6.88;4.80;;;;;;;13.95;59.30;99157.22;2617739;54;20030;-67
2022/05/15 00:51:42;;;;;;;7.43;4.25;;;;;;;13.92;59.34;99157.63;2617573;54;20044;-67
2022/05/15 00:54:14;;;;;;;;;;;;;;;13.84;58.73;99159.47;2617899;39;20419;-67
2022/05/15 00:56:51;;;;;;;4.20;3.80;;;;;;;13.75;58.97;99168.66;2617468;47;19947;-69
2022/05/15 00:59:24;;;;;;;5.90;4.30;;;;;;;13.69;59.77;99164.16;2618379;54;20573;-68
2022/05/15 01:01:54;;;;;;;4.63;3.70;;;;;;;13.65;59.79;99170.91;2618136;54;20042;-69
2022/05/15 01:04:26;;;;;;;5.15;4.18;;;;;;;13.66;60.25;99171.72;2617944;54;20038;-67
2022/05/15 01:06:56;;;;;;;7.88;4.78;;;;;;;13.80;59.72;99162.75;2617123;54;20035;-66
2022/05/15 01:09:26;;;;;;;5.35;3.75;;;;;;;13.74;59.93;99158.25;2617295;54;20180;-66
2022/05/15 01:11:56;;;;;;;8.82;4.47;;;;;;;13.82;59.72;99158.03;2618315;54;20044;-67
2022/05/15 01:14:28;;;;;;;6.40;4.00;;;;;;;13.85;59.41;99160.28;2618260;54;20041;-67
2022/05/15 01:16:58;;;;;;;5.03;4.20;;;;;;;13.88;59.65;99171.34;2618648;39;20445;-67
2022/05/15 01:19:38;;;;;;;5.35;4.07;;;;;;;13.89;59.20;99169.50;2617757;47;20149;-69
2022/05/15 01:22:14;;;;;;;4.97;4.47;;;;;;;13.79;59.49;99161.09;2617588;47;20065;-67
2022/05/15 01:24:45;;;;;;;6.90;4.22;;;;;;;13.57;59.58;99169.25;2617604;54;20542;-67
2022/05/15 01:27:15;;;;;;;6.15;4.43;;;;;;;13.40;60.33;99162.72;2617533;54;20031;-67
2022/05/15 01:29:49;;;;;;;6.78;4.30;;;;;;;13.36;60.33;99167.59;2618007;54;20026;-67
2022/05/15 01:32:21;;;;;;;5.43;4.00;;;;;;;13.21;60.67;99166.91;2617051;47;20041;-67
2022/05/15 01:34:50;;;;;;;4.53;4.10;;;;;;;13.13;61.29;99170.56;2617035;47;20031;-67
2022/05/15 01:37:22;;;;;;;4.40;4.00;;;;;;;13.22;61.34;99159.78;2617313;39;20479;-67
2022/05/15 01:39:52;;;;;;;5.53;3.88;;;;;;;13.22;61.20;99157.94;2617318;54;20046;-67
2022/05/15 01:42:22;;;;;;;7.85;3.85;;;;;;;13.17;60.84;99159.56;2617129;47;20038;-67
2022/05/15 01:44:52;;;;;;;5.60;4.15;;;;;;;13.11;61.10;99162.00;2619043;54;20073;-67
2022/05/15 01:47:22;;;;;;;8.45;4.15;;;;;;;12.95;61.80;99166.84;2622186;39;20430;-67
2022/05/15 01:49:52;;;;;;;4.00;3.60;;;;;;;12.95;61.91;99164.19;2616987;54;20023;-67
2022/05/15 01:52:24;;;;;;;7.07;4.28;;;;;;;13.08;61.65;99164.25;2617007;54;20068;-69
2022/05/15 01:54:54;;;;;;;5.32;4.20;;;;;;;13.03;61.62;99172.00;2616806;54;20053;-68
2022/05/15 01:57:26;;;;;;;4.05;3.63;;;;;;;13.03;61.68;99172.81;2616614;54;20061;-69
2022/05/15 01:59:56;;;;;;;6.45;4.43;;;;;;;13.02;61.43;99172.97;2617571;54;20109;-67
2022/05/15 02:02:26;;;;;;;5.95;3.67;;;;;;;12.88;61.75;99169.47;2617642;47;20033;-68
2022/05/15 02:04:56;;;;;;;5.35;3.67;;;;;;;12.83;62.48;99169.25;2618754;39;20077;-67
2022/05/15 02:07:28;;;;;;;5.43;4.13;;;;;;;12.89;62.28;99166.63;2617539;54;20041;-67
2022/05/15 02:09:58;;;;;;;6.55;3.80;;;;;;;12.96;62.07;99169.31;2617575;54;20055;-67
2022/05/15 02:12:28;;;;;;;5.85;4.05;;;;;;;12.79;62.45;99171.47;2617479;46;20633;-67
2022/05/15 02:14:58;;;;;;;6.53;4.60;;;;;;;12.69;62.68;99164.91;2617572;54;20073;-66
2022/05/15 02:17:28;;;;;;;6.05;4.55;;;;;;;12.66;62.59;99166.13;2617483;47;20026;-67
2022/05/15 02:19:59;;;;;;;7.30;3.78;;;;;;;12.66;62.67;99150.22;2617604;54;20056;-67
2022/05/15 02:22:31;;;;;;;5.15;3.92;;;;;;;12.55;62.61;99159.53;2617630;54;20026;-67
2022/05/15 02:25:01;;;;;;;4.32;3.92;;;;;;;12.53;62.90;99156.28;2617511;47;20023;-68
2022/05/15 02:27:31;;;;;;;5.40;3.90;;;;;;;12.61;63.02;99156.13;2617555;46;20038;-67
2022/05/15 02:30:00;;;;;;;7.10;4.75;;;;;;;12.53;62.70;99155.44;2618102;54;20045;-67
2022/05/15 02:32:31;;;;;;;5.18;4.25;;;;;;;12.46;63.07;99147.47;2617652;47;20038;-68
2022/05/15 02:35:01;;;;;;;6.22;4.10;;;;;;;12.41;63.51;99147.25;2618152;54;20022;-67
2022/05/15 02:37:34;;;;;;;4.93;4.03;;;;;;;12.42;63.20;99145.41;2617533;47;20030;-67
2022/05/15 02:40:03;;;;;;;9.32;4.32;;;;;;;12.39;62.90;99151.91;2617549;47;20023;-67
2022/05/15 02:42:33;;;;;;;4.70;4.30;;;;;;;12.22;63.81;99147.94;2618117;54;20026;-68
2022/05/15 02:45:04;;;;;;;4.75;3.92;;;;;;;12.24;63.78;99143.25;2617558;54;20073;-68
2022/05/15 02:47:34;;;;;;;5.70;4.18;;;;;;;12.42;63.66;99151.53;2618135;54;20541;-67
2022/05/15 02:52:53;;;;;;;5.78;4.53;;;;;;;12.21;63.66;99144.47;2617471;51;20025;-67
2022/05/15 02:55:24;;;;;;;5.10;3.80;;;;;;;12.31;63.96;99154.72;2617740;47;20113;-68
2022/05/15 02:57:55;;;;;;;4.75;4.28;;;;;;;12.42;63.69;99156.81;2617324;47;20030;-67
2022/05/15 03:00:27;;;;;;;4.72;4.32;;;;;;;12.41;63.42;99147.25;2618086;54;20046;-66
2022/05/15 03:02:57;;;;;;;5.75;3.97;;;;;;;12.40;63.37;99156.19;2617954;39;20507;-67
2022/05/15 03:05:31;;;;;;;4.32;3.92;;;;;;;12.27;62.96;99148.16;2618110;54;20030;-67
2022/05/15 03:08:03;;;;;;;9.30;4.75;;;;;;;12.20;63.32;99153.41;2617577;39;20404;-68
2022/05/15 03:10:33;;;;;;;7.30;4.15;;;;;;;12.22;63.34;99155.88;2618014;54;20039;-67
2022/05/15 03:13:02;;;;;;;7.78;4.35;;;;;;;12.22;63.49;99153.25;2617622;49;20049;-68
2022/05/15 03:15:32;;;;;;;5.35;4.85;;;;;;;12.15;63.21;99153.19;2617487;47;20557;-67
2022/05/15 03:18:01;;;;;;;6.75;4.20;;;;;;;12.11;63.63;99151.94;2617682;54;20030;-68
2022/05/15 03:20:31;;;;;;;4.78;4.10;;;;;;;12.10;63.52;99159.06;2617959;54;20041;-67
2022/05/15 03:23:04;;;;;;;6.25;5.00;;;;;;;12.12;63.43;99158.88;2617737;54;20031;-67
2022/05/15 03:25:34;;;;;;;4.40;4.00;;;;;;;12.25;63.29;99155.50;2619089;39;20442;-67
2022/05/15 03:28:09;;;;;;;6.00;4.40;;;;;;;12.31;62.78;99155.53;2617153;54;20033;-68
2022/05/15 03:30:39;;;;;;;6.25;4.57;;;;;;;12.14;63.03;99147.06;2617978;54;20037;-68
2022/05/15 03:33:09;;;;;;;5.18;4.68;;;;;;;11.93;63.50;99151.63;2617329;47;20023;-67
2022/05/15 03:35:40;;;;;;;7.57;4.75;;;;;;;11.99;64.34;99156.94;2617516;54;20150;-68
2022/05/15 03:38:12;;;;;;;5.68;5.18;;;;;;;12.01;63.75;99157.59;2617337;54;20035;-68
2022/05/15 03:40:43;;;;;;;6.47;4.93;;;;;;;11.95;63.91;99160.19;2618133;54;20035;-67
2022/05/15 03:43:12;;;;;;;7.32;4.70;;;;;;;11.92;64.02;99164.06;2618357;54;20057;-67
2022/05/15 03:45:43;;;;;;;5.82;5.22;;;;;;;11.78;64.01;99152.47;2618091;54;20557;-68
2022/05/15 03:48:13;;;;;;;6.70;5.13;;;;;;;11.74;64.40;99156.53;2617181;54;20130;-67
2022/05/15 03:50:42;;;;;;;4.63;4.20;;;;;;;11.80;64.02;99163.72;2617626;54;20035;-67
2022/05/15 03:53:15;;;;;;;6.57;5.10;;;;;;;11.79;64.19;99153.28;2617887;54;20045;-68
2022/05/15 03:55:44;;;;;;;5.63;4.75;;;;;;;11.69;64.41;99153.63;2617413;47;20039;-67
2022/05/15 03:58:14;;;;;;;5.20;4.35;;;;;;;11.58;64.97;99162.09;2617557;54;20041;-68
2022/05/15 04:00:44;;;;;;;5.70;4.57;;;;;;;11.57;64.68;99155.97;2618275;54;20042;-67
2022/05/15 04:03:14;;;;;;;5.07;4.25;;;;;;;11.57;65.06;99155.16;2618057;54;20019;-67
2022/05/15 04:05:43;;;;;;;4.85;3.85;;;;;;;11.58;64.73;99149.66;2617319;47;20030;-67
2022/05/15 04:08:16;;;;;;;7.78;4.88;;;;;;;11.70;64.49;99157.91;2617474;47;20118;-67
2022/05/15 04:10:46;;;;;;;6.28;4.00;;;;;;;11.85;64.21;99153.38;2617393;51;20031;-67
2022/05/15 04:13:16;;;;;;;6.28;4.03;;;;;;;11.99;64.02;99143.69;2617318;54;20050;-67
2022/05/15 04:15:45;;;;;;;4.97;4.13;;;;;;;12.02;63.25;99143.31;2617652;54;20030;-67
2022/05/15 04:18:15;;;;;;;7.55;3.67;;;;;;;12.04;62.84;99132.50;2616897;46;20081;-66
2022/05/15 04:20:45;;;;;;;3.70;3.38;;;;;;;12.08;63.30;99139.06;2618254;39;20442;-66
2022/05/15 04:23:17;;;;;;;5.35;3.80;;;;;;;12.15;62.84;99142.59;2617374;54;20029;-66
2022/05/15 04:25:47;;;;;;;4.68;3.60;;;;;;;12.23;62.63;99136.31;2617346;54;20034;-67
2022/05/15 04:28:17;;;;;;;4.45;4.05;;;;;;;12.28;62.29;99141.84;2617987;54;20046;-67
2022/05/15 04:30:46;;;;;;;7.25;4.18;;;;;;;12.37;62.53;99144.16;2618722;47;20521;-68
2022/05/15 04:33:17;;;;;;;5.65;4.32;;;;;;;12.42;62.07;99148.88;2617811;54;20034;-67
2022/05/15 04:35:46;;;;;;;8.77;3.92;;;;;;;12.46;61.88;99150.13;2621840;54;20037;-67
2022/05/15 04:38:18;;;;;;;6.45;4.13;;;;;;;12.56;61.20;99149.75;2622751;39;20404;-67
2022/05/15 04:40:48;;;;;;;7.45;4.10;;;;;;;12.54;60.97;99149.94;2623106;54;20035;-66
2022/05/15 04:43:18;;;;;;;4.75;3.50;;;;;;;12.53;61.07;99150.97;2620602;54;20038;-66
2022/05/15 04:45:48;;;;;;;7.32;4.72;;;;;;;12.53;61.30;99156.28;2619444;47;20061;-68
2022/05/15 04:48:17;;;;;;;5.55;4.25;;;;;;;12.49;61.04;99152.38;2619024;47;20038;-67
2022/05/15 04:50:47;;;;;;;4.47;4.07;;;;;;;12.47;61.29;99159.69;2619452;54;20074;-68
2022/05/15 04:53:19;;;;;;;9.05;5.65;;;;;;;12.49;61.30;99160.34;2620367;54;20033;-68
2022/05/15 04:55:49;;;;;;;4.63;3.65;;;;;;;12.42;60.96;99161.31;2620690;54;20027;-67
2022/05/15 04:58:18;;;;;;;7.05;3.95;;;;;;;12.39;61.17;99168.63;2623549;39;20446;-67
2022/05/15 05:00:48;;;;;;;4.20;3.88;;;;;;;12.47;61.90;99166.84;2621318;47;20031;-67
2022/05/15 05:03:18;;;;;;;5.53;4.25;;;;;;;12.58;61.66;99167.09;2623889;39;20508;-68
2022/05/15 05:05:48;;;;;;;6.32;4.28;;;;;;;12.70;61.59;99174.50;2625055;39;20423;-67
2022/05/15 05:08:20;;;;;;;7.95;4.55;;;;;;;12.86;61.05;99163.56;2623190;54;20026;-67
2022/05/15 05:10:50;;;;;;;6.18;4.10;;;;;;;12.79;60.57;99171.47;2620382;54;20038;-67
2022/05/15 05:13:19;;;;;;;6.10;4.68;;;;;;;12.77;60.83;99167.38;2617938;54;20031;-66
2022/05/15 05:15:49;;;;;;;15.95;9.35;;;;;;;12.79;60.82;99166.19;2617364;54;20031;-66
2022/05/15 05:18:20;;;;;;;6.10;4.70;;;;;;;12.90;61.33;99162.16;2618334;54;20562;-66
2022/05/15 05:20:49;;;;;;;11.30;5.15;;;;;;;13.06;60.35;99164.44;2624509;51;20026;-67
2022/05/15 05:23:22;;;;;;;9.05;5.78;;;;;;;13.12;60.45;99162.81;2625192;54;20043;-67
2022/05/15 05:25:51;;;;;;;6.93;4.90;;;;;;;13.29;60.04;99164.13;2620070;54;20027;-67
2022/05/15 05:28:22;;;;;;;7.78;4.60;;;;;;;13.44;59.69;99161.28;2617253;47;20065;-67
2022/05/15 05:30:52;;;;;;;4.93;4.40;;;;;;;13.58;59.03;99170.91;2617919;54;20081;-67
2022/05/15 05:33:23;;;;;;;6.70;4.20;;;;;;;13.63;58.51;99171.13;2622398;54;20023;-68
2022/05/15 05:35:53;;;;;;;7.38;5.57;;;;;;;13.70;58.53;99165.81;2623954;54;20042;-67
2022/05/15 05:38:25;;;;;;;11.35;4.65;;;;;;;13.79;58.47;99161.09;2623851;54;20050;-68
2022/05/15 05:40:55;;;;;;;5.60;4.25;;;;;;;13.86;58.04;99157.41;2624489;54;20037;-68
2022/05/15 05:43:24;;;;;;;7.03;4.28;;;;;;;13.82;57.83;99156.19;2624322;54;20035;-67
2022/05/15 05:45:54;;;;;;;10.00;4.63;;;;;;;13.84;57.96;99143.53;2622566;54;20026;-67
2022/05/15 05:48:24;;;;;;;6.57;4.93;;;;;;;13.94;57.93;99156.41;2618817;54;20038;-67
2022/05/15 05:50:54;;;;;;;5.32;4.45;;;;;;;13.97;57.50;99155.19;2618580;54;20038;-67
2022/05/15 05:53:26;;;;;;;5.15;4.38;;;;;;;14.05;57.65;99154.97;2618403;54;20038;-67
2022/05/15 05:55:55;;;;;;;6.05;4.93;;;;;;;14.26;57.62;99160.03;2617777;47;20038;-67
2022/05/15 05:58:25;;;;;;;8.23;4.80;;;;;;;14.40;57.28;99162.66;2618104;54;20038;-68
2022/05/15 06:00:55;;;;;;;8.95;5.32;;;;;;;14.56;57.12;99162.25;2618086;47;20038;-67
2022/05/15 06:06:07;;;;;;;11.52;7.90;;;;;;;14.81;56.75;99157.84;2618456;54;20019;-67
2022/05/15 06:08:40;;;;;;;9.70;6.63;;;;;;;14.94;56.06;99159.66;2618132;54;20041;-68
2022/05/15 06:11:09;;;;;;;9.88;7.35;;;;;;;15.06;56.26;99157.13;2618495;54;20038;-67
2022/05/15 06:13:39;;;;;;;10.45;6.28;;;;;;;15.17;56.00;99148.47;2618111;54;20031;-67
2022/05/15 06:16:09;;;;;;;7.72;6.18;;;;;;;15.27;56.01;99145.34;2618844;54;20026;-67
2022/05/15 06:18:39;;;;;;;6.22;5.20;;;;;;;15.34;55.60;99146.91;2618063;39;20407;-67
2022/05/15 06:21:09;;;;;;;6.78;5.38;;;;;;;15.44;55.34;99151.78;2618359;54;20031;-67
2022/05/15 06:23:46;;;;;;;6.53;5.03;;;;;;;15.58;55.47;99150.66;2617599;47;20035;-68
2022/05/15 06:26:16;;;;;;;7.00;4.80;;;;;;;15.68;55.07;99152.88;2618423;54;20034;-67
2022/05/15 06:28:46;;;;;;;9.32;5.28;;;;;;;15.70;54.92;99145.47;2618398;46;20049;-67
2022/05/15 06:31:15;;;;;;;7.15;4.70;;;;;;;15.77;54.64;99146.22;2618173;54;20027;-67
2022/05/15 06:33:45;;;;;;;10.82;6.78;;;;;;;15.94;54.79;99145.69;2617816;54;20035;-68
2022/05/15 06:36:15;;;;;;;9.90;7.18;;;;;;;16.12;54.47;99143.03;2618377;39;20369;-67
2022/05/15 06:38:47;;;;;;;7.78;5.78;;;;;;;16.25;54.22;99152.78;2618052;54;20035;-68
2022/05/15 06:41:17;;;;;;;9.18;5.45;;;;;;;16.42;53.84;99148.50;2618152;54;20034;-67
2022/05/15 06:43:46;;;;;;;10.00;7.25;;;;;;;16.52;54.25;99148.78;2618119;54;20061;-68
2022/05/15 06:46:17;;;;;;;9.73;5.20;;;;;;;16.70;53.74;99149.84;2618023;54;20576;-67
2022/05/15 06:48:47;;;;;;;7.43;4.82;;;;;;;16.81;53.30;99144.56;2617266;47;20030;-67
2022/05/15 06:51:16;;;;;;;6.13;4.43;;;;;;;16.98;53.46;99144.78;2617984;54;20022;-66
2022/05/15 06:53:49;;;;;;;9.18;4.25;;;;;;;17.13;53.10;99141.69;2618414;39;20434;-67
2022/05/15 06:59:02;;;;;;;6.75;4.75;;;;;;;17.31;52.27;99144.31;2617826;54;20038;-67
2022/05/15 07:01:32;;;;;;;10.95;4.95;;;;;;;17.39;52.12;99135.16;2617981;54;20534;-67
2022/05/15 07:04:02;;;;;;;7.75;6.45;;;;;;;17.50;52.21;99141.56;2617235;47;20136;-67
2022/05/15 07:06:32;;;;;;;39.45;28.42;;;;;;;17.66;51.61;99142.75;2617341;54;20538;-68
2022/05/15 07:09:05;;;;;;;7.95;3.55;;;;;;;17.76;51.26;99143.88;2617386;54;20119;-67
2022/05/15 07:11:34;;;;;;;4.95;3.85;;;;;;;17.89;50.91;99140.16;2617383;54;20034;-67
2022/05/15 07:14:04;;;;;;;7.90;3.47;;;;;;;18.06;50.39;99133.06;2618695;54;20039;-67
2022/05/15 07:16:34;;;;;;;6.35;3.25;;;;;;;18.23;49.77;99135.84;2618840;54;20046;-67
2022/05/15 07:19:03;;;;;;;9.80;4.07;;;;;;;18.37;49.17;99138.25;2620360;54;20135;-68
2022/05/15 07:21:33;;;;;;;9.38;3.90;;;;;;;18.50;48.87;99132.66;2624312;54;20110;-67
2022/05/15 07:24:06;;;;;;;5.85;3.45;;;;;;;18.58;48.68;99129.63;2625008;54;20026;-68
2022/05/15 07:26:39;;;;;;;13.25;3.40;;;;;;;18.63;48.25;99132.41;2621116;47;20041;-68
2022/05/15 07:29:09;;;;;;;7.55;3.40;;;;;;;18.66;47.82;99131.94;2618125;54;20544;-67
2022/05/15 07:31:38;;;;;;;6.38;3.58;;;;;;;18.77;48.07;99135.63;2619384;54;20034;-67
2022/05/15 07:34:08;;;;;;;6.32;3.25;;;;;;;18.81;47.84;99134.13;2618124;47;20157;-68
2022/05/15 07:36:38;;;;;;;6.93;3.42;;;;;;;18.91;47.58;99130.84;2618103;54;20035;-68
2022/05/15 07:39:11;;;;;;;5.82;3.08;;;;;;;19.02;48.03;99124.59;2617842;54;20035;-68
2022/05/15 07:41:40;;;;;;;10.18;3.33;;;;;;;19.19;47.10;99125.47;2617941;54;20042;-67
2022/05/15 07:44:10;;;;;;;7.53;3.08;;;;;;;19.26;46.91;99130.66;2617246;54;20039;-69
2022/05/15 07:46:40;;;;;;;7.32;2.83;;;;;;;19.32;46.82;99132.41;2617948;54;20034;-67
2022/05/15 07:49:10;;;;;;;5.85;3.50;;;;;;;19.43;46.34;99125.31;2617548;54;20030;-68
2022/05/15 07:51:44;;;;;;;8.95;4.40;;;;;;;19.55;46.73;99126.06;2617151;47;20035;-67
2022/05/15 07:54:19;;;;;;;6.32;3.20;;;;;;;19.70;46.43;99120.97;2618012;54;20125;-68
2022/05/15 09:44:31;;;;;;;14.73;9.52;;;;;;;24.28;30.50;99043.34;2598182;46;20027;-68
2022/05/15 09:47:04;;;;;;;9.13;3.65;;;;;;;24.31;29.25;99050.09;2618394;39;20418;-70
2022/05/15 09:49:35;;;;;;;15.55;11.50;;;;;;;24.24;29.73;99047.69;2617938;47;20077;-66
2022/05/15 09:52:13;;;;;;;11.02;9.70;;;;;;;24.26;29.99;99045.53;2620236;54;20030;-67
2022/05/15 09:54:47;;;;;;;15.40;7.50;;;;;;;24.39;29.17;99036.06;2619513;54;20053;-69
2022/05/15 09:57:20;;;;;;;4.53;2.45;;;;;;;24.45;28.88;99040.34;2619463;54;20045;-68
2022/05/15 10:00:05;;;;;;;6.40;2.95;;;;;;;24.35;28.81;99038.47;2618923;54;20058;-67
2022/05/15 10:02:44;;;;;;;7.40;2.92;;;;;;;24.37;29.04;99032.78;2619772;39;20417;-70
2022/05/15 10:05:21;;;;;;;5.32;3.25;;;;;;;24.51;28.50;99033.03;2618738;47;20030;-66
2022/05/15 10:08:00;;;;;;;7.28;4.10;;;;;;;24.63;28.67;99028.91;2619234;54;20039;-68
2022/05/15 10:10:34;;;;;;;6.57;4.35;;;;;;;24.75;29.26;99028.56;2619370;46;20061;-67
2022/05/15 10:13:09;;;;;;;7.60;4.63;;;;;;;24.67;29.69;99029.16;2620207;39;20407;-68
2022/05/15 10:15:45;;;;;;;17.30;11.82;;;;;;;24.82;29.22;99028.22;2617598;47;20556;-68
2022/05/15 10:18:20;;;;;;;9.15;5.78;;;;;;;24.91;28.23;99021.16;2618158;39;20407;-67
2022/05/15 10:20:52;;;;;;;13.35;6.75;;;;;;;24.80;28.21;99027.72;2618671;39;20437;-68
2022/05/15 10:23:27;;;;;;;27.27;17.30;;;;;;;24.73;28.41;99014.50;2620956;54;20146;-68
2022/05/15 10:26:00;;;;;;;51.10;33.28;;;;;;;24.67;28.81;99019.16;2620958;54;20049;-68
2022/05/15 10:28:41;;;;;;;8.88;5.07;;;;;;;24.59;28.82;99005.41;2620873;54;20561;-67
2022/05/15 10:31:20;;;;;;;22.10;14.68;;;;;;;24.78;28.70;99002.84;2620747;54;20072;-66
2022/05/15 10:33:52;;;;;;;30.90;22.95;;;;;;;25.05;28.18;99000.50;2621121;54;20034;-66
2022/05/15 10:36:41;;;;;;;28.45;23.27;;;;;;;24.98;28.85;98991.09;2621646;54;20041;-67
2022/05/15 10:39:23;;;;;;;92.65;67.68;;;;;;;25.03;29.06;98991.06;2619050;54;20050;-66
2022/05/15 10:42:04;;;;;;;45.83;27.48;;;;;;;25.20;28.58;98994.19;2618308;54;20038;-68
2022/05/15 10:44:41;;;;;;;;;;;;;;;25.25;27.84;98982.50;2617857;54;20038;-69
2022/05/15 10:47:17;;;;;;;8.65;4.13;;;;;;;25.28;27.69;98971.94;2618251;54;20435;-70
2022/05/15 10:50:01;;;;;;;3.88;2.50;;;;;;;25.26;28.04;98984.13;2618222;54;20041;-67
2022/05/15 10:52:45;;;;;;;11.77;4.40;;;;;;;25.25;28.31;98985.22;2618359;54;20026;-68
2022/05/15 10:58:19;;;;;;;16.00;9.65;;;;;;;25.23;28.27;98971.16;2619619;54;20073;-68
2022/05/15 11:01:03;;;;;;;11.90;6.43;;;;;;;25.32;28.65;98966.75;2620109;54;20031;-68
2022/05/15 11:03:53;;;;;;;9.23;4.85;;;;;;;25.41;27.94;98962.34;2625137;54;20331;-69
2022/05/15 11:06:36;;;;;;;7.60;2.10;;;;;;;25.53;27.52;98959.25;2625376;31;20497;-69
2022/05/15 11:09:12;;;;;;;8.45;6.95;;;;;;;25.60;27.10;98957.00;2621978;54;20034;-68
2022/05/15 11:12:12;;;;;;;11.43;8.75;;;;;;;25.73;27.64;98955.50;2618226;54;20065;-68
2022/05/15 11:14:53;;;;;;;20.55;14.50;;;;;;;25.92;27.36;98942.84;2617768;54;20030;-67
2022/05/15 11:17:30;;;;;;;32.15;26.55;;;;;;;25.99;26.73;98943.28;2618206;54;20053;-67
2022/05/15 11:20:09;;;;;;;24.52;19.27;;;;;;;25.85;27.36;98954.03;2618266;54;20038;-69
2022/05/15 11:22:44;;;;;;;12.27;8.35;;;;;;;25.76;27.15;98946.78;2618149;54;20031;-68
2022/05/15 11:25:21;;;;;;;24.17;16.83;;;;;;;25.70;27.72;98944.16;2617560;47;20045;-69
2022/05/15 11:27:53;;;;;;;13.98;11.60;;;;;;;25.79;26.89;98952.47;2617811;54;20042;-69
2022/05/15 11:30:26;;;;;;;9.10;4.53;;;;;;;25.83;27.28;98944.56;2617905;54;20065;-69
2022/05/15 11:33:08;;;;;;;7.72;5.65;;;;;;;26.11;27.19;98942.88;2617521;54;20154;-67
2022/05/15 11:35:43;;;;;;;12.88;10.25;;;;;;;26.33;26.53;98953.13;2617598;54;20145;-68
2022/05/15 11:38:22;;;;;;;9.10;6.57;;;;;;;26.31;26.57;98948.03;2617888;54;20049;-67
2022/05/15 11:40:53;;;;;;;14.50;12.15;;;;;;;26.28;26.83;98943.19;2617418;47;20019;-67
2022/05/15 11:43:56;;;;;;;17.73;13.50;;;;;;;26.30;26.85;98932.88;2617369;54;20030;-67
2022/05/15 11:46:59;;;;;;;11.52;8.85;;;;;;;26.41;26.79;98938.94;2617730;54;20027;-69
2022/05/15 11:49:34;;;;;;;16.95;15.13;;;;;;;26.37;27.08;98929.78;2617997;46;20054;-67
2022/05/15 11:52:37;;;;;;;4.55;2.70;;;;;;;26.34;27.06;98927.66;2617924;54;20041;-67
2022/05/15 11:55:39;;;;;;;6.95;2.38;;;;;;;26.52;27.31;98928.78;2618130;54;20027;-66
2022/05/15 11:58:41;;;;;;;11.82;5.07;;;;;;;26.63;26.97;98925.63;2627812;39;20479;-68
2022/05/15 12:01:40;;;;;;;9.30;4.88;;;;;;;26.56;27.54;98922.47;2625296;54;20134;-66
2022/05/15 12:04:11;;;;;;;7.03;4.35;;;;;;;26.70;27.42;98919.84;2625852;54;20034;-67
2022/05/15 12:06:50;;;;;;;32.50;22.90;;;;;;;26.92;27.65;98914.56;2625469;54;20046;-69
2022/05/15 12:09:33;;;;;;;9.50;4.55;;;;;;;27.01;27.38;98913.88;2617853;54;20558;-68
2022/05/15 12:12:33;;;;;;;7.00;4.63;;;;;;;27.12;27.46;98908.03;2617849;54;20026;-67
2022/05/15 12:15:09;;;;;;;14.63;10.27;;;;;;;27.13;27.35;98906.91;2617168;47;20061;-67
2022/05/15 12:17:41;;;;;;;20.52;13.55;;;;;;;27.14;27.63;98899.56;2617839;54;20166;-68
2022/05/15 12:20:16;;;;;;;6.00;2.53;;;;;;;27.17;27.05;98898.97;2617477;47;20034;-67
2022/05/15 12:22:52;;;;;;;7.88;6.38;;;;;;;27.19;27.56;98895.94;2617258;54;20037;-68
2022/05/15 12:25:31;;;;;;;15.70;10.00;;;;;;;27.24;27.18;98895.88;2617967;54;20030;-68
2022/05/15 12:30:50;;;;;;;4.80;2.75;;;;;;;27.27;27.59;98887.94;2617577;46;20050;-68
2022/05/15 12:33:27;;;;;;;7.32;4.88;;;;;;;27.32;27.27;98887.03;2618378;39;20450;-68
2022/05/15 12:35:58;;;;;;;3.40;2.83;;;;;;;27.35;27.40;98876.41;2617886;54;20031;-68
2022/05/15 12:38:29;;;;;;;3.45;2.90;;;;;;;27.54;26.55;98878.19;2617617;54;20031;-68
2022/05/15 12:41:05;;;;;;;6.40;3.65;;;;;;;27.58;26.40;98880.00;2617639;54;20340;-68
2022/05/15 12:43:37;;;;;;;6.47;1.90;;;;;;;27.65;26.33;98866.03;2619915;54;20604;-68
2022/05/15 12:46:07;;;;;;;5.73;3.70;;;;;;;27.63;26.43;98865.50;2623147;54;20106;-69
2022/05/15 12:48:39;;;;;;;5.18;4.15;;;;;;;27.63;26.40;98865.50;2624025;54;20157;-69
2022/05/15 12:51:10;;;;;;;5.03;3.03;;;;;;;27.53;26.86;98861.09;2623217;47;20045;-68
2022/05/15 12:53:44;;;;;;;9.50;4.80;;;;;;;27.58;26.69;98860.19;2623022;54;20035;-68
2022/05/15 12:56:20;;;;;;;8.68;2.72;;;;;;;27.77;25.72;98863.63;2622027;54;20030;-67
2022/05/15 12:58:54;;;;;;;8.82;3.00;;;;;;;27.76;25.82;98869.34;2622857;51;20023;-68
2022/05/15 13:01:27;;;;;;;3.47;2.10;;;;;;;27.75;25.50;98852.25;2622885;54;20038;-67
2022/05/15 13:03:59;;;;;;;3.83;2.40;;;;;;;27.83;25.57;98856.16;2622171;54;20121;-68
2022/05/15 13:06:33;;;;;;;3.15;2.00;;;;;;;27.82;25.46;98860.00;2621919;47;20113;-69
2022/05/15 13:09:06;;;;;;;9.13;7.90;;;;;;;27.85;25.44;98843.09;2622655;47;20035;-70
2022/05/15 13:11:45;;;;;;;;;;;;;;;27.92;25.20;98851.59;2623310;54;20041;-67
2022/05/15 13:14:21;;;;;;;5.93;2.45;;;;;;;27.91;25.32;98852.72;2618186;54;19947;-68
2022/05/15 13:16:54;;;;;;;6.38;2.55;;;;;;;27.87;25.01;98844.38;2617811;54;20069;-69
2022/05/15 13:19:29;;;;;;;3.70;2.60;;;;;;;27.89;25.30;98850.31;2617457;54;20076;-68
2022/05/15 13:22:00;;;;;;;4.65;2.30;;;;;;;28.13;24.73;98850.06;2617884;54;20045;-70
2022/05/15 13:24:31;;;;;;;2.38;1.63;;;;;;;28.18;24.59;98834.75;2618336;54;20044;-69
2022/05/15 13:27:09;;;;;;;6.03;3.13;;;;;;;28.27;24.19;98835.59;2618261;54;20042;-69
2022/05/15 13:29:40;;;;;;;5.40;1.83;;;;;;;28.35;23.98;98837.59;2617665;54;20022;-68
2022/05/15 13:32:14;;;;;;;3.92;1.80;;;;;;;28.08;23.83;98824.91;2617545;54;20046;-68
2022/05/15 13:34:46;;;;;;;4.00;1.73;;;;;;;28.02;24.10;98828.84;2621662;54;20043;-69
2022/05/15 13:37:30;;;;;;;3.45;2.13;;;;;;;28.00;24.47;98823.72;2622966;54;20054;-68
2022/05/15 13:43:28;;;;;;;5.00;1.92;;;;;;;28.18;23.96;98819.25;2619537;54;20061;-68
2022/05/15 13:46:00;;;;;;;6.03;2.53;;;;;;;28.42;23.82;98815.44;2617622;54;20026;-69
2022/05/15 13:48:30;;;;;;;2.92;1.73;;;;;;;28.55;23.34;98820.00;2617534;39;20454;-69
2022/05/15 13:51:02;;;;;;;5.18;1.55;;;;;;;28.53;23.59;98806.69;2617518;54;20038;-68
2022/05/15 13:53:35;;;;;;;2.50;1.60;;;;;;;28.56;23.19;98805.28;2617058;54;20134;-69
2022/05/15 13:56:06;;;;;;;4.03;2.25;;;;;;;28.65;23.20;98806.13;2617726;54;20061;-68
2022/05/15 13:58:48;;;;;;;5.68;2.10;;;;;;;28.72;22.96;98808.41;2618820;54;20042;-69
2022/05/15 14:01:22;;;;;;;3.47;1.60;;;;;;;28.64;22.61;98799.09;2618146;39;20481;-69
2022/05/15 14:03:53;;;;;;;9.15;2.00;;;;;;;28.61;23.04;98789.63;2618746;54;20157;-68